sensor_id;sensor_type;location;lat;lon;timestamp;P1;durP1;ratioP1;P2;durP2;ratioP2
40074;SDS011;26529;51.530;11.754;2022-12-07T00:01:50;26.27;;;16.40;;
40074;SDS011;26529;51.530;11.754;2022-12-07T00:04:11;26.30;;;16.05;;
40074;SDS011;26529;51.530;11.754;2022-12-07T00:06:42;24.20;;;16.10;;
40074;SDS011;26529;51.530;11.754;2022-12-07T00:09:10;25.05;;;15.43;;
40074;SDS011;26529;51.530;11.754;2022-12-07T00:11:38;23.92;;;13.85;;
40074;SDS011;26529;51.530;11.754;2022-12-07T00:14:05;21.23;;;14.55;;
40074;SDS011;26529;51.530;11.754;2022-12-07T00:16:33;23.95;;;13.80;;
40074;SDS011;26529;51.530;11.754;2022-12-07T00:18:59;25.65;;;16.05;;
40074;SDS011;26529;51.530;11.754;2022-12-07T00:21:29;23.10;;;14.23;;
40074;SDS011;26529;51.530;11.754;2022-12-07T00:23:56;24.75;;;14.23;;
40074;SDS011;26529;51.530;11.754;2022-12-07T00:26:26;23.98;;;14.98;;
40074;SDS011;26529;51.530;11.754;2022-12-07T00:28:54;23.88;;;14.23;;
40074;SDS011;26529;51.530;11.754;2022-12-07T00:31:22;20.63;;;14.27;;
40074;SDS011;26529;51.530;11.754;2022-12-07T00:33:49;20.70;;;13.25;;
40074;SDS011;26529;51.530;11.754;2022-12-07T00:36:16;21.50;;;13.15;;
40074;SDS011;26529;51.530;11.754;2022-12-07T00:38:44;21.85;;;13.73;;
40074;SDS011;26529;51.530;11.754;2022-12-07T00:41:13;22.40;;;13.73;;
40074;SDS011;26529;51.530;11.754;2022-12-07T00:43:41;19.10;;;12.65;;
40074;SDS011;26529;51.530;11.754;2022-12-07T00:46:08;20.17;;;13.40;;
40074;SDS011;26529;51.530;11.754;2022-12-07T00:48:34;23.13;;;12.43;;
40074;SDS011;26529;51.530;11.754;2022-12-07T00:51:00;20.15;;;12.48;;
40074;SDS011;26529;51.530;11.754;2022-12-07T00:53:27;21.23;;;12.68;;
40074;SDS011;26529;51.530;11.754;2022-12-07T00:55:53;17.80;;;12.48;;
40074;SDS011;26529;51.530;11.754;2022-12-07T00:58:19;17.42;;;11.75;;
40074;SDS011;26529;51.530;11.754;2022-12-07T01:00:45;18.17;;;12.45;;
40074;SDS011;26529;51.530;11.754;2022-12-07T01:03:11;19.35;;;11.82;;
40074;SDS011;26529;51.530;11.754;2022-12-07T01:05:39;17.92;;;12.00;;
40074;SDS011;26529;51.530;11.754;2022-12-07T01:08:05;19.70;;;12.45;;
40074;SDS011;26529;51.530;11.754;2022-12-07T01:10:32;18.85;;;12.05;;
40074;SDS011;26529;51.530;11.754;2022-12-07T01:12:58;19.85;;;11.65;;
40074;SDS011;26529;51.530;11.754;2022-12-07T01:15:24;19.58;;;11.77;;
40074;SDS011;26529;51.530;11.754;2022-12-07T01:17:51;17.50;;;11.40;;
40074;SDS011;26529;51.530;11.754;2022-12-07T01:20:16;17.38;;;11.40;;
40074;SDS011;26529;51.530;11.754;2022-12-07T01:22:42;19.42;;;11.38;;
40074;SDS011;26529;51.530;11.754;2022-12-07T01:25:09;19.70;;;11.15;;
40074;SDS011;26529;51.530;11.754;2022-12-07T01:27:36;17.80;;;10.63;;
40074;SDS011;26529;51.530;11.754;2022-12-07T01:30:03;15.32;;;9.48;;
40074;SDS011;26529;51.530;11.754;2022-12-07T01:32:30;16.90;;;10.82;;
40074;SDS011;26529;51.530;11.754;2022-12-07T01:34:56;19.05;;;11.32;;
40074;SDS011;26529;51.530;11.754;2022-12-07T01:37:21;16.75;;;10.43;;
40074;SDS011;26529;51.530;11.754;2022-12-07T01:39:50;18.48;;;10.93;;
40074;SDS011;26529;51.530;11.754;2022-12-07T01:42:17;20.13;;;11.02;;
40074;SDS011;26529;51.530;11.754;2022-12-07T01:47:47;14.82;;;10.10;;
40074;SDS011;26529;51.530;11.754;2022-12-07T01:50:16;16.48;;;10.00;;
40074;SDS011;26529;51.530;11.754;2022-12-07T01:52:42;13.18;;;9.07;;
40074;SDS011;26529;51.530;11.754;2022-12-07T01:55:10;15.80;;;9.80;;
40074;SDS011;26529;51.530;11.754;2022-12-07T01:57:41;18.85;;;11.13;;
40074;SDS011;26529;51.530;11.754;2022-12-07T02:00:10;15.05;;;9.52;;
40074;SDS011;26529;51.530;11.754;2022-12-07T02:05:11;14.80;;;9.50;;
40074;SDS011;26529;51.530;11.754;2022-12-07T02:07:37;13.13;;;9.35;;
40074;SDS011;26529;51.530;11.754;2022-12-07T02:10:21;13.73;;;9.07;;
40074;SDS011;26529;51.530;11.754;2022-12-07T02:12:54;15.27;;;8.95;;
40074;SDS011;26529;51.530;11.754;2022-12-07T02:15:26;14.80;;;9.52;;
40074;SDS011;26529;51.530;11.754;2022-12-07T02:18:16;13.45;;;9.27;;
40074;SDS011;26529;51.530;11.754;2022-12-07T02:21:02;14.18;;;9.02;;
40074;SDS011;26529;51.530;11.754;2022-12-07T02:24:00;12.82;;;8.63;;
40074;SDS011;26529;51.530;11.754;2022-12-07T02:29:33;11.52;;;8.50;;
40074;SDS011;26529;51.530;11.754;2022-12-07T02:37:19;14.38;;;8.70;;
40074;SDS011;26529;51.530;11.754;2022-12-07T02:39:55;15.13;;;8.90;;
40074;SDS011;26529;51.530;11.754;2022-12-07T02:42:31;13.43;;;7.85;;
40074;SDS011;26529;51.530;11.754;2022-12-07T02:45:03;12.45;;;7.90;;
40074;SDS011;26529;51.530;11.754;2022-12-07T02:47:31;15.85;;;8.82;;
40074;SDS011;26529;51.530;11.754;2022-12-07T02:49:59;13.63;;;7.95;;
40074;SDS011;26529;51.530;11.754;2022-12-07T02:52:27;14.35;;;8.70;;
40074;SDS011;26529;51.530;11.754;2022-12-07T02:54:53;15.18;;;9.32;;
40074;SDS011;26529;51.530;11.754;2022-12-07T03:13:00;14.32;;;7.57;;
40074;SDS011;26529;51.530;11.754;2022-12-07T03:15:32;10.27;;;7.47;;
40074;SDS011;26529;51.530;11.754;2022-12-07T03:18:03;10.82;;;6.70;;
40074;SDS011;26529;51.530;11.754;2022-12-07T03:20:30;11.95;;;7.05;;
40074;SDS011;26529;51.530;11.754;2022-12-07T03:23:00;10.20;;;7.30;;
40074;SDS011;26529;51.530;11.754;2022-12-07T03:25:29;10.25;;;6.32;;
40074;SDS011;26529;51.530;11.754;2022-12-07T03:27:56;11.07;;;6.82;;
40074;SDS011;26529;51.530;11.754;2022-12-07T03:30:29;11.02;;;7.00;;
40074;SDS011;26529;51.530;11.754;2022-12-07T03:33:03;10.00;;;6.28;;
40074;SDS011;26529;51.530;11.754;2022-12-07T03:35:37;9.55;;;6.45;;
40074;SDS011;26529;51.530;11.754;2022-12-07T03:40:44;11.45;;;7.18;;
40074;SDS011;26529;51.530;11.754;2022-12-07T03:43:17;11.43;;;6.75;;
40074;SDS011;26529;51.530;11.754;2022-12-07T03:45:44;11.15;;;6.97;;
40074;SDS011;26529;51.530;11.754;2022-12-07T03:48:27;9.98;;;5.82;;
40074;SDS011;26529;51.530;11.754;2022-12-07T03:53:54;8.88;;;6.53;;
40074;SDS011;26529;51.530;11.754;2022-12-07T03:56:32;7.57;;;5.35;;
40074;SDS011;26529;51.530;11.754;2022-12-07T03:58:59;8.20;;;5.85;;
40074;SDS011;26529;51.530;11.754;2022-12-07T04:01:25;10.60;;;6.15;;
40074;SDS011;26529;51.530;11.754;2022-12-07T04:03:51;9.20;;;5.93;;
40074;SDS011;26529;51.530;11.754;2022-12-07T04:06:16;9.70;;;5.72;;
40074;SDS011;26529;51.530;11.754;2022-12-07T04:08:42;7.45;;;5.05;;
40074;SDS011;26529;51.530;11.754;2022-12-07T04:11:08;11.68;;;6.38;;
40074;SDS011;26529;51.530;11.754;2022-12-07T04:13:33;9.93;;;5.53;;
40074;SDS011;26529;51.530;11.754;2022-12-07T04:16:19;8.10;;;5.47;;
40074;SDS011;26529;51.530;11.754;2022-12-07T04:18:45;7.82;;;5.70;;
40074;SDS011;26529;51.530;11.754;2022-12-07T04:21:11;8.50;;;5.80;;
40074;SDS011;26529;51.530;11.754;2022-12-07T04:23:36;7.82;;;5.47;;
40074;SDS011;26529;51.530;11.754;2022-12-07T04:26:02;7.95;;;5.45;;
40074;SDS011;26529;51.530;11.754;2022-12-07T04:28:27;7.18;;;5.18;;
40074;SDS011;26529;51.530;11.754;2022-12-07T04:30:53;8.55;;;5.43;;
40074;SDS011;26529;51.530;11.754;2022-12-07T04:33:18;7.70;;;4.90;;
40074;SDS011;26529;51.530;11.754;2022-12-07T04:35:44;5.85;;;4.55;;
40074;SDS011;26529;51.530;11.754;2022-12-07T04:38:09;8.15;;;5.28;;
40074;SDS011;26529;51.530;11.754;2022-12-07T04:40:35;7.78;;;5.50;;
40074;SDS011;26529;51.530;11.754;2022-12-07T04:43:01;9.52;;;5.20;;
40074;SDS011;26529;51.530;11.754;2022-12-07T04:45:26;7.90;;;5.30;;
40074;SDS011;26529;51.530;11.754;2022-12-07T04:47:52;7.28;;;4.97;;
40074;SDS011;26529;51.530;11.754;2022-12-07T04:50:18;8.45;;;4.97;;
40074;SDS011;26529;51.530;11.754;2022-12-07T04:52:43;7.53;;;5.28;;
40074;SDS011;26529;51.530;11.754;2022-12-07T04:55:09;8.25;;;4.50;;
40074;SDS011;26529;51.530;11.754;2022-12-07T04:57:34;6.65;;;4.35;;
40074;SDS011;26529;51.530;11.754;2022-12-07T05:00:00;8.82;;;4.80;;
40074;SDS011;26529;51.530;11.754;2022-12-07T05:02:25;7.35;;;4.55;;
40074;SDS011;26529;51.530;11.754;2022-12-07T05:04:51;6.03;;;4.32;;
40074;SDS011;26529;51.530;11.754;2022-12-07T05:07:16;6.80;;;4.55;;
40074;SDS011;26529;51.530;11.754;2022-12-07T05:09:42;6.85;;;4.07;;
40074;SDS011;26529;51.530;11.754;2022-12-07T05:12:07;9.27;;;4.18;;
40074;SDS011;26529;51.530;11.754;2022-12-07T05:14:33;8.38;;;4.43;;
40074;SDS011;26529;51.530;11.754;2022-12-07T05:16:59;6.90;;;3.58;;
40074;SDS011;26529;51.530;11.754;2022-12-07T05:19:24;7.03;;;4.28;;
40074;SDS011;26529;51.530;11.754;2022-12-07T05:21:51;8.02;;;4.15;;
40074;SDS011;26529;51.530;11.754;2022-12-07T05:24:16;6.13;;;3.78;;
40074;SDS011;26529;51.530;11.754;2022-12-07T05:26:42;6.38;;;3.95;;
40074;SDS011;26529;51.530;11.754;2022-12-07T05:29:13;5.50;;;4.03;;
40074;SDS011;26529;51.530;11.754;2022-12-07T05:31:40;7.50;;;3.78;;
40074;SDS011;26529;51.530;11.754;2022-12-07T05:34:06;6.32;;;3.88;;
40074;SDS011;26529;51.530;11.754;2022-12-07T05:36:31;10.77;;;4.75;;
40074;SDS011;26529;51.530;11.754;2022-12-07T05:38:57;6.93;;;4.15;;
40074;SDS011;26529;51.530;11.754;2022-12-07T05:41:23;5.88;;;3.95;;
40074;SDS011;26529;51.530;11.754;2022-12-07T05:44:07;5.97;;;3.65;;
40074;SDS011;26529;51.530;11.754;2022-12-07T05:46:33;8.15;;;4.47;;
40074;SDS011;26529;51.530;11.754;2022-12-07T05:48:59;5.15;;;3.53;;
40074;SDS011;26529;51.530;11.754;2022-12-07T05:51:25;6.00;;;3.72;;
40074;SDS011;26529;51.530;11.754;2022-12-07T05:53:51;6.60;;;3.60;;
40074;SDS011;26529;51.530;11.754;2022-12-07T05:56:17;5.43;;;3.58;;
40074;SDS011;26529;51.530;11.754;2022-12-07T05:58:42;4.57;;;3.50;;
40074;SDS011;26529;51.530;11.754;2022-12-07T06:01:26;9.23;;;3.60;;
40074;SDS011;26529;51.530;11.754;2022-12-07T06:03:52;5.18;;;3.10;;
40074;SDS011;26529;51.530;11.754;2022-12-07T06:06:18;6.50;;;3.45;;
40074;SDS011;26529;51.530;11.754;2022-12-07T06:08:43;7.57;;;3.67;;
40074;SDS011;26529;51.530;11.754;2022-12-07T06:11:09;4.28;;;3.15;;
40074;SDS011;26529;51.530;11.754;2022-12-07T06:13:53;5.28;;;3.03;;
40074;SDS011;26529;51.530;11.754;2022-12-07T06:16:19;4.80;;;3.40;;
40074;SDS011;26529;51.530;11.754;2022-12-07T06:18:44;5.30;;;3.22;;
40074;SDS011;26529;51.530;11.754;2022-12-07T06:21:10;4.95;;;3.15;;
40074;SDS011;26529;51.530;11.754;2022-12-07T06:23:35;5.65;;;3.20;;
40074;SDS011;26529;51.530;11.754;2022-12-07T06:26:01;4.40;;;2.88;;
40074;SDS011;26529;51.530;11.754;2022-12-07T06:28:26;5.63;;;3.13;;
40074;SDS011;26529;51.530;11.754;2022-12-07T06:30:59;5.10;;;3.10;;
40074;SDS011;26529;51.530;11.754;2022-12-07T06:33:25;4.43;;;3.10;;
40074;SDS011;26529;51.530;11.754;2022-12-07T06:35:51;3.85;;;3.17;;
40074;SDS011;26529;51.530;11.754;2022-12-07T06:38:17;5.18;;;2.80;;
40074;SDS011;26529;51.530;11.754;2022-12-07T06:40:43;3.83;;;2.78;;
40074;SDS011;26529;51.530;11.754;2022-12-07T06:43:08;6.25;;;3.00;;
40074;SDS011;26529;51.530;11.754;2022-12-07T06:45:34;4.35;;;2.67;;
40074;SDS011;26529;51.530;11.754;2022-12-07T06:48:00;5.45;;;3.13;;
40074;SDS011;26529;51.530;11.754;2022-12-07T06:50:26;4.93;;;3.22;;
40074;SDS011;26529;51.530;11.754;2022-12-07T06:52:51;4.60;;;3.38;;
40074;SDS011;26529;51.530;11.754;2022-12-07T06:55:17;3.85;;;2.45;;
40074;SDS011;26529;51.530;11.754;2022-12-07T06:57:43;5.50;;;2.92;;
40074;SDS011;26529;51.530;11.754;2022-12-07T07:00:09;4.65;;;2.72;;
40074;SDS011;26529;51.530;11.754;2022-12-07T07:02:35;5.28;;;2.65;;
40074;SDS011;26529;51.530;11.754;2022-12-07T07:05:01;4.78;;;2.83;;
40074;SDS011;26529;51.530;11.754;2022-12-07T07:07:26;4.65;;;3.00;;
40074;SDS011;26529;51.530;11.754;2022-12-07T07:09:52;5.95;;;2.80;;
40074;SDS011;26529;51.530;11.754;2022-12-07T07:12:18;5.90;;;2.90;;
40074;SDS011;26529;51.530;11.754;2022-12-07T07:14:43;2.78;;;2.25;;
40074;SDS011;26529;51.530;11.754;2022-12-07T07:17:09;4.30;;;2.38;;
40074;SDS011;26529;51.530;11.754;2022-12-07T07:19:34;3.42;;;2.38;;
40074;SDS011;26529;51.530;11.754;2022-12-07T07:22:00;4.28;;;2.55;;
40074;SDS011;26529;51.530;11.754;2022-12-07T07:24:26;3.95;;;2.78;;
40074;SDS011;26529;51.530;11.754;2022-12-07T07:26:52;4.05;;;2.80;;
40074;SDS011;26529;51.530;11.754;2022-12-07T07:29:17;3.10;;;2.40;;
40074;SDS011;26529;51.530;11.754;2022-12-07T07:31:43;3.08;;;2.03;;
40074;SDS011;26529;51.530;11.754;2022-12-07T07:34:08;5.32;;;2.47;;
40074;SDS011;26529;51.530;11.754;2022-12-07T07:36:34;4.10;;;2.67;;
40074;SDS011;26529;51.530;11.754;2022-12-07T07:38:59;3.60;;;2.10;;
40074;SDS011;26529;51.530;11.754;2022-12-07T07:41:25;2.70;;;2.30;;
40074;SDS011;26529;51.530;11.754;2022-12-07T07:43:50;4.82;;;2.05;;
40074;SDS011;26529;51.530;11.754;2022-12-07T07:46:16;3.45;;;2.38;;
40074;SDS011;26529;51.530;11.754;2022-12-07T07:48:42;4.80;;;2.70;;
40074;SDS011;26529;51.530;11.754;2022-12-07T07:51:07;3.95;;;2.10;;
40074;SDS011;26529;51.530;11.754;2022-12-07T07:53:33;2.58;;;2.00;;
40074;SDS011;26529;51.530;11.754;2022-12-07T07:55:59;3.33;;;2.35;;
40074;SDS011;26529;51.530;11.754;2022-12-07T07:58:25;5.68;;;1.77;;
40074;SDS011;26529;51.530;11.754;2022-12-07T08:00:50;3.75;;;2.33;;
40074;SDS011;26529;51.530;11.754;2022-12-07T08:03:16;4.85;;;2.35;;
40074;SDS011;26529;51.530;11.754;2022-12-07T08:05:42;2.88;;;1.98;;
40074;SDS011;26529;51.530;11.754;2022-12-07T08:08:07;2.95;;;2.15;;
40074;SDS011;26529;51.530;11.754;2022-12-07T08:10:33;4.30;;;2.15;;
40074;SDS011;26529;51.530;11.754;2022-12-07T08:13:00;3.15;;;2.05;;
40074;SDS011;26529;51.530;11.754;2022-12-07T08:15:42;6.97;;;2.20;;
40074;SDS011;26529;51.530;11.754;2022-12-07T08:18:09;3.13;;;1.95;;
40074;SDS011;26529;51.530;11.754;2022-12-07T08:20:35;6.22;;;1.95;;
40074;SDS011;26529;51.530;11.754;2022-12-07T08:23:01;3.42;;;2.13;;
40074;SDS011;26529;51.530;11.754;2022-12-07T08:25:27;12.35;;;1.92;;
40074;SDS011;26529;51.530;11.754;2022-12-07T08:27:53;7.72;;;1.85;;
40074;SDS011;26529;51.530;11.754;2022-12-07T08:30:20;8.90;;;2.38;;
40074;SDS011;26529;51.530;11.754;2022-12-07T08:32:46;8.70;;;1.80;;
40074;SDS011;26529;51.530;11.754;2022-12-07T08:35:13;10.35;;;1.85;;
40074;SDS011;26529;51.530;11.754;2022-12-07T08:37:39;7.28;;;1.83;;
40074;SDS011;26529;51.530;11.754;2022-12-07T08:40:05;15.82;;;1.90;;
40074;SDS011;26529;51.530;11.754;2022-12-07T08:42:32;15.02;;;2.65;;
40074;SDS011;26529;51.530;11.754;2022-12-07T08:45:08;8.40;;;2.40;;
40074;SDS011;26529;51.530;11.754;2022-12-07T08:47:37;17.45;;;2.20;;
40074;SDS011;26529;51.530;11.754;2022-12-07T08:50:07;12.18;;;2.33;;
40074;SDS011;26529;51.530;11.754;2022-12-07T08:52:35;13.25;;;1.65;;
40074;SDS011;26529;51.530;11.754;2022-12-07T08:55:01;12.93;;;1.98;;
40074;SDS011;26529;51.530;11.754;2022-12-07T08:57:30;10.90;;;1.92;;
40074;SDS011;26529;51.530;11.754;2022-12-07T08:59:58;10.35;;;2.28;;
40074;SDS011;26529;51.530;11.754;2022-12-07T09:02:24;10.68;;;2.33;;
40074;SDS011;26529;51.530;11.754;2022-12-07T09:04:50;9.00;;;2.28;;
40074;SDS011;26529;51.530;11.754;2022-12-07T09:07:15;11.07;;;2.05;;
40074;SDS011;26529;51.530;11.754;2022-12-07T09:09:41;10.68;;;2.08;;
40074;SDS011;26529;51.530;11.754;2022-12-07T09:12:07;10.05;;;1.75;;
40074;SDS011;26529;51.530;11.754;2022-12-07T09:14:32;18.05;;;2.30;;
40074;SDS011;26529;51.530;11.754;2022-12-07T09:17:05;12.35;;;1.92;;
40074;SDS011;26529;51.530;11.754;2022-12-07T09:19:35;8.00;;;1.60;;
40074;SDS011;26529;51.530;11.754;2022-12-07T09:22:02;7.80;;;1.77;;
40074;SDS011;26529;51.530;11.754;2022-12-07T09:24:30;11.27;;;2.00;;
40074;SDS011;26529;51.530;11.754;2022-12-07T09:26:56;11.15;;;2.35;;
40074;SDS011;26529;51.530;11.754;2022-12-07T09:29:23;6.95;;;2.42;;
40074;SDS011;26529;51.530;11.754;2022-12-07T09:31:48;9.77;;;2.05;;
40074;SDS011;26529;51.530;11.754;2022-12-07T09:34:14;13.50;;;1.98;;
40074;SDS011;26529;51.530;11.754;2022-12-07T09:36:39;11.85;;;1.80;;
40074;SDS011;26529;51.530;11.754;2022-12-07T09:39:05;12.95;;;2.25;;
40074;SDS011;26529;51.530;11.754;2022-12-07T09:41:31;8.60;;;2.00;;
40074;SDS011;26529;51.530;11.754;2022-12-07T09:44:02;9.45;;;1.85;;
40074;SDS011;26529;51.530;11.754;2022-12-07T09:46:30;9.65;;;2.03;;
40074;SDS011;26529;51.530;11.754;2022-12-07T09:49:00;10.00;;;2.10;;
40074;SDS011;26529;51.530;11.754;2022-12-07T09:51:26;14.05;;;1.98;;
40074;SDS011;26529;51.530;11.754;2022-12-07T09:53:53;15.93;;;2.35;;
40074;SDS011;26529;51.530;11.754;2022-12-07T09:56:21;11.93;;;2.35;;
40074;SDS011;26529;51.530;11.754;2022-12-07T09:58:48;9.73;;;2.05;;
40074;SDS011;26529;51.530;11.754;2022-12-07T10:01:15;10.57;;;1.83;;
40074;SDS011;26529;51.530;11.754;2022-12-07T10:03:45;9.75;;;1.55;;
40074;SDS011;26529;51.530;11.754;2022-12-07T10:06:15;10.50;;;2.05;;
40074;SDS011;26529;51.530;11.754;2022-12-07T10:08:41;8.77;;;1.70;;
40074;SDS011;26529;51.530;11.754;2022-12-07T10:11:08;11.13;;;1.70;;
40074;SDS011;26529;51.530;11.754;2022-12-07T10:16:02;6.55;;;1.23;;
40074;SDS011;26529;51.530;11.754;2022-12-07T10:18:35;6.57;;;1.27;;
40074;SDS011;26529;51.530;11.754;2022-12-07T10:21:19;6.53;;;1.67;;
40074;SDS011;26529;51.530;11.754;2022-12-07T10:29:16;9.30;;;1.50;;
40074;SDS011;26529;51.530;11.754;2022-12-07T10:31:45;5.05;;;1.48;;
40074;SDS011;26529;51.530;11.754;2022-12-07T10:36:54;6.10;;;1.40;;
40074;SDS011;26529;51.530;11.754;2022-12-07T10:42:23;6.40;;;1.67;;
40074;SDS011;26529;51.530;11.754;2022-12-07T10:45:07;8.55;;;1.60;;
40074;SDS011;26529;51.530;11.754;2022-12-07T10:47:38;8.60;;;1.40;;
40074;SDS011;26529;51.530;11.754;2022-12-07T10:56:06;6.45;;;1.50;;
40074;SDS011;26529;51.530;11.754;2022-12-07T10:58:44;7.38;;;1.13;;
40074;SDS011;26529;51.530;11.754;2022-12-07T11:01:33;8.52;;;1.52;;
40074;SDS011;26529;51.530;11.754;2022-12-07T11:06:54;11.43;;;1.45;;
40074;SDS011;26529;51.530;11.754;2022-12-07T11:12:36;10.57;;;1.27;;
40074;SDS011;26529;51.530;11.754;2022-12-07T11:18:14;5.53;;;1.45;;
40074;SDS011;26529;51.530;11.754;2022-12-07T11:23:16;4.63;;;1.25;;
40074;SDS011;26529;51.530;11.754;2022-12-07T11:26:07;7.75;;;1.23;;
40074;SDS011;26529;51.530;11.754;2022-12-07T11:32:00;1.75;;;0.82;;
40074;SDS011;26529;51.530;11.754;2022-12-07T11:37:31;4.82;;;1.25;;
40074;SDS011;26529;51.530;11.754;2022-12-07T11:42:49;1.90;;;0.80;;
40074;SDS011;26529;51.530;11.754;2022-12-07T11:48:13;2.97;;;0.90;;
40074;SDS011;26529;51.530;11.754;2022-12-07T11:50:50;2.83;;;0.88;;
40074;SDS011;26529;51.530;11.754;2022-12-07T11:53:25;5.00;;;1.35;;
40074;SDS011;26529;51.530;11.754;2022-12-07T11:56:00;1.70;;;0.73;;
40074;SDS011;26529;51.530;11.754;2022-12-07T12:03:46;2.67;;;0.68;;
40074;SDS011;26529;51.530;11.754;2022-12-07T12:06:14;6.18;;;0.98;;
40074;SDS011;26529;51.530;11.754;2022-12-07T12:09:28;2.42;;;0.75;;
40074;SDS011;26529;51.530;11.754;2022-12-07T12:14:24;2.13;;;0.77;;
40074;SDS011;26529;51.530;11.754;2022-12-07T12:22:18;6.03;;;1.00;;
40074;SDS011;26529;51.530;11.754;2022-12-07T12:24:48;3.70;;;0.90;;
40074;SDS011;26529;51.530;11.754;2022-12-07T12:27:20;6.88;;;1.65;;
40074;SDS011;26529;51.530;11.754;2022-12-07T12:29:52;5.13;;;1.92;;
40074;SDS011;26529;51.530;11.754;2022-12-07T12:32:21;5.75;;;1.95;;
40074;SDS011;26529;51.530;11.754;2022-12-07T12:34:58;7.07;;;1.92;;
40074;SDS011;26529;51.530;11.754;2022-12-07T12:42:49;12.48;;;2.42;;
40074;SDS011;26529;51.530;11.754;2022-12-07T12:50:25;7.88;;;2.42;;
40074;SDS011;26529;51.530;11.754;2022-12-07T12:52:55;12.00;;;3.15;;
40074;SDS011;26529;51.530;11.754;2022-12-07T12:55:30;7.82;;;2.42;;
40074;SDS011;26529;51.530;11.754;2022-12-07T13:00:44;6.30;;;2.58;;
40074;SDS011;26529;51.530;11.754;2022-12-07T13:03:29;10.70;;;3.17;;
40074;SDS011;26529;51.530;11.754;2022-12-07T13:08:58;7.97;;;3.05;;
40074;SDS011;26529;51.530;11.754;2022-12-07T13:11:28;14.23;;;3.58;;
40074;SDS011;26529;51.530;11.754;2022-12-07T13:17:01;7.22;;;2.92;;
40074;SDS011;26529;51.530;11.754;2022-12-07T13:25:42;7.57;;;2.90;;
40074;SDS011;26529;51.530;11.754;2022-12-07T13:28:33;9.38;;;3.55;;
40074;SDS011;26529;51.530;11.754;2022-12-07T13:30:43;14.27;;;2.88;;
40074;SDS011;26529;51.530;11.754;2022-12-07T13:33:24;8.88;;;2.70;;
40074;SDS011;26529;51.530;11.754;2022-12-07T13:35:54;9.75;;;3.03;;
40074;SDS011;26529;51.530;11.754;2022-12-07T13:38:27;10.75;;;3.55;;
40074;SDS011;26529;51.530;11.754;2022-12-07T13:43:27;11.75;;;4.38;;
40074;SDS011;26529;51.530;11.754;2022-12-07T13:45:56;9.00;;;3.88;;
40074;SDS011;26529;51.530;11.754;2022-12-07T13:51:12;13.82;;;4.60;;
40074;SDS011;26529;51.530;11.754;2022-12-07T13:53:49;11.57;;;3.97;;
40074;SDS011;26529;51.530;11.754;2022-12-07T13:56:21;15.98;;;4.10;;
40074;SDS011;26529;51.530;11.754;2022-12-07T13:58:51;9.90;;;3.92;;
40074;SDS011;26529;51.530;11.754;2022-12-07T14:01:16;10.90;;;3.78;;
40074;SDS011;26529;51.530;11.754;2022-12-07T14:03:43;13.07;;;4.47;;
40074;SDS011;26529;51.530;11.754;2022-12-07T14:06:30;13.48;;;3.92;;
40074;SDS011;26529;51.530;11.754;2022-12-07T14:11:47;13.10;;;4.15;;
40074;SDS011;26529;51.530;11.754;2022-12-07T14:14:20;14.90;;;4.60;;
40074;SDS011;26529;51.530;11.754;2022-12-07T14:17:11;14.43;;;4.57;;
40074;SDS011;26529;51.530;11.754;2022-12-07T14:19:44;8.50;;;3.25;;
40074;SDS011;26529;51.530;11.754;2022-12-07T14:22:19;16.17;;;4.35;;
40074;SDS011;26529;51.530;11.754;2022-12-07T14:24:45;10.95;;;3.85;;
40074;SDS011;26529;51.530;11.754;2022-12-07T14:27:17;10.73;;;4.28;;
40074;SDS011;26529;51.530;11.754;2022-12-07T14:29:47;14.27;;;4.13;;
40074;SDS011;26529;51.530;11.754;2022-12-07T14:37:48;14.40;;;3.92;;
40074;SDS011;26529;51.530;11.754;2022-12-07T14:40:19;13.70;;;4.45;;
40074;SDS011;26529;51.530;11.754;2022-12-07T14:42:46;11.95;;;3.88;;
40074;SDS011;26529;51.530;11.754;2022-12-07T14:45:16;12.20;;;3.55;;
40074;SDS011;26529;51.530;11.754;2022-12-07T14:47:44;14.93;;;4.30;;
40074;SDS011;26529;51.530;11.754;2022-12-07T14:50:14;9.27;;;3.78;;
40074;SDS011;26529;51.530;11.754;2022-12-07T14:52:42;12.63;;;3.60;;
40074;SDS011;26529;51.530;11.754;2022-12-07T14:55:18;10.50;;;3.33;;
40074;SDS011;26529;51.530;11.754;2022-12-07T14:57:55;7.85;;;4.13;;
40074;SDS011;26529;51.530;11.754;2022-12-07T15:00:22;9.95;;;3.72;;
40074;SDS011;26529;51.530;11.754;2022-12-07T15:02:49;8.25;;;3.83;;
40074;SDS011;26529;51.530;11.754;2022-12-07T15:05:15;9.98;;;3.67;;
40074;SDS011;26529;51.530;11.754;2022-12-07T15:07:41;12.68;;;3.90;;
40074;SDS011;26529;51.530;11.754;2022-12-07T15:10:17;9.43;;;3.47;;
40074;SDS011;26529;51.530;11.754;2022-12-07T15:12:45;8.55;;;3.70;;
40074;SDS011;26529;51.530;11.754;2022-12-07T15:15:11;12.35;;;3.25;;
40074;SDS011;26529;51.530;11.754;2022-12-07T15:17:37;7.32;;;3.22;;
40074;SDS011;26529;51.530;11.754;2022-12-07T15:20:03;10.80;;;3.63;;
40074;SDS011;26529;51.530;11.754;2022-12-07T15:22:29;8.95;;;3.40;;
40074;SDS011;26529;51.530;11.754;2022-12-07T15:24:56;6.78;;;3.03;;
40074;SDS011;26529;51.530;11.754;2022-12-07T15:27:22;11.15;;;3.22;;
40074;SDS011;26529;51.530;11.754;2022-12-07T15:29:48;10.55;;;3.30;;
40074;SDS011;26529;51.530;11.754;2022-12-07T15:32:13;7.75;;;3.42;;
40074;SDS011;26529;51.530;11.754;2022-12-07T15:34:39;7.60;;;3.55;;
40074;SDS011;26529;51.530;11.754;2022-12-07T15:37:04;7.53;;;3.05;;
40074;SDS011;26529;51.530;11.754;2022-12-07T15:39:31;10.05;;;3.47;;
40074;SDS011;26529;51.530;11.754;2022-12-07T15:41:56;10.30;;;3.35;;
40074;SDS011;26529;51.530;11.754;2022-12-07T15:44:22;9.70;;;3.17;;
40074;SDS011;26529;51.530;11.754;2022-12-07T15:47:06;8.85;;;2.72;;
40074;SDS011;26529;51.530;11.754;2022-12-07T15:49:31;10.40;;;4.32;;
40074;SDS011;26529;51.530;11.754;2022-12-07T15:51:57;11.48;;;3.42;;
40074;SDS011;26529;51.530;11.754;2022-12-07T15:54:24;8.13;;;3.00;;
40074;SDS011;26529;51.530;11.754;2022-12-07T15:56:51;11.15;;;3.85;;
40074;SDS011;26529;51.530;11.754;2022-12-07T15:59:16;13.32;;;3.45;;
40074;SDS011;26529;51.530;11.754;2022-12-07T16:01:42;11.88;;;3.22;;
40074;SDS011;26529;51.530;11.754;2022-12-07T16:04:08;8.73;;;3.40;;
40074;SDS011;26529;51.530;11.754;2022-12-07T16:06:34;9.50;;;3.38;;
40074;SDS011;26529;51.530;11.754;2022-12-07T16:08:59;8.63;;;3.42;;
40074;SDS011;26529;51.530;11.754;2022-12-07T16:11:25;6.78;;;2.72;;
40074;SDS011;26529;51.530;11.754;2022-12-07T16:13:51;14.45;;;3.67;;
40074;SDS011;26529;51.530;11.754;2022-12-07T16:16:17;11.23;;;3.50;;
40074;SDS011;26529;51.530;11.754;2022-12-07T16:18:44;7.70;;;3.22;;
40074;SDS011;26529;51.530;11.754;2022-12-07T16:21:11;9.20;;;3.33;;
40074;SDS011;26529;51.530;11.754;2022-12-07T16:23:37;11.15;;;3.20;;
40074;SDS011;26529;51.530;11.754;2022-12-07T16:26:07;7.15;;;2.78;;
40074;SDS011;26529;51.530;11.754;2022-12-07T16:28:34;10.32;;;3.28;;
40074;SDS011;26529;51.530;11.754;2022-12-07T16:31:01;8.30;;;2.88;;
40074;SDS011;26529;51.530;11.754;2022-12-07T16:33:33;8.13;;;3.47;;
40074;SDS011;26529;51.530;11.754;2022-12-07T16:36:00;11.43;;;3.58;;
40074;SDS011;26529;51.530;11.754;2022-12-07T16:38:27;12.90;;;2.95;;
40074;SDS011;26529;51.530;11.754;2022-12-07T16:40:52;7.72;;;2.55;;
40074;SDS011;26529;51.530;11.754;2022-12-07T16:43:18;11.68;;;2.95;;
40074;SDS011;26529;51.530;11.754;2022-12-07T16:45:45;8.23;;;3.35;;